Main page
METAR-TAF:

METAR-TAF

Airports :

Erbil International Airport

Erbil, Iraq

latitude: 36-14-15N, longitude: 43-57-47E, elevation: 415 m

Current weather observation

The report was made 34 minutes ago, at 13:00 UTC
Wind 9 kt from the West/Southwest
Temperature 43°C
Humidity 12%
Pressure 1002 hPa
Visibility: 8000 m

METAR: ORER 161300Z 25009KT 8000 NSC 43/07 Q1002

Time: 16:34 (13:34 UTC)

Forecast

The report was made 2 hours and 34 minutes ago, at 11:00 UTC
Forecast valid from 16 at 12 UTC to 17 at 12 UTC
Wind 11 kt from the West
Visibility: 7000 m
Becoming
from 16 at 19 UTC to 16 at 21 UTC
Wind 2 kt from variable directions
Becoming
from 17 at 08 UTC to 17 at 10 UTC
Wind 10 kt from the West

TAF: ORER 161100Z 1612/1712 26011KT 7000 NSC BECMG 1619/1621 VRB02KT BECMG 1708/1710 26010KT

Weather observations and forecasts of more than 4000 airports (METAR and TAF reports).

The available stations are represented by yellow and red dots on the map.

Hover mouse over dot to see the name of the station.

Then click to see weather observations and forecasts.

To change the map : click on the green buttons with a black cross to zoom in, on the green button with a dash to zoom out, or on the green arrows for adjacent maps.


METAR-TAF: